sensor_id;sensor_type;location;lat;lon;timestamp;pressure;altitude;pressure_sealevel;temperature
53667;BMP280;39568;51.026;5.468;2022-10-12T00:00:31;101660.34;;;4.21
53667;BMP280;39568;51.026;5.468;2022-10-12T00:02:59;101650.69;;;4.15
53667;BMP280;39568;51.026;5.468;2022-10-12T00:05:27;101651.13;;;4.13
53667;BMP280;39568;51.026;5.468;2022-10-12T00:07:54;101651.88;;;4.14
53667;BMP280;39568;51.026;5.468;2022-10-12T00:10:21;101655.06;;;4.05
53667;BMP280;39568;51.026;5.468;2022-10-12T00:12:48;101648.06;;;3.98
53667;BMP280;39568;51.026;5.468;2022-10-12T00:15:16;101651.19;;;3.93
53667;BMP280;39568;51.026;5.468;2022-10-12T00:17:43;101641.91;;;3.89
53667;BMP280;39568;51.026;5.468;2022-10-12T00:20:10;101641.56;;;3.87
53667;BMP280;39568;51.026;5.468;2022-10-12T00:22:40;101640.81;;;3.86
53667;BMP280;39568;51.026;5.468;2022-10-12T00:25:09;101640.97;;;3.79
53667;BMP280;39568;51.026;5.468;2022-10-12T00:27:35;101641.38;;;3.78
53667;BMP280;39568;51.026;5.468;2022-10-12T00:30:02;101639.88;;;3.77
53667;BMP280;39568;51.026;5.468;2022-10-12T00:32:29;101639.56;;;3.75
53667;BMP280;39568;51.026;5.468;2022-10-12T00:34:56;101642.59;;;3.73
53667;BMP280;39568;51.026;5.468;2022-10-12T00:37:22;101635.84;;;3.72
53667;BMP280;39568;51.026;5.468;2022-10-12T00:39:50;101639.00;;;3.67
53667;BMP280;39568;51.026;5.468;2022-10-12T00:42:18;101636.03;;;3.65
53667;BMP280;39568;51.026;5.468;2022-10-12T00:44:47;101636.84;;;3.62
53667;BMP280;39568;51.026;5.468;2022-10-12T00:47:20;101636.91;;;3.59
53667;BMP280;39568;51.026;5.468;2022-10-12T00:49:51;101636.16;;;3.58
53667;BMP280;39568;51.026;5.468;2022-10-12T00:52:22;101639.16;;;3.60
53667;BMP280;39568;51.026;5.468;2022-10-12T00:54:53;101634.06;;;3.69
53667;BMP280;39568;51.026;5.468;2022-10-12T00:57:20;101636.13;;;3.78
53667;BMP280;39568;51.026;5.468;2022-10-12T00:59:51;101625.03;;;3.70
53667;BMP280;39568;51.026;5.468;2022-10-12T01:02:20;101624.59;;;3.72
53667;BMP280;39568;51.026;5.468;2022-10-12T01:04:52;101625.50;;;3.65
53667;BMP280;39568;51.026;5.468;2022-10-12T01:07:19;101620.78;;;3.57
53667;BMP280;39568;51.026;5.468;2022-10-12T01:09:46;101621.34;;;3.48
53667;BMP280;39568;51.026;5.468;2022-10-12T01:12:14;101622.97;;;3.42
53667;BMP280;39568;51.026;5.468;2022-10-12T01:14:47;101616.72;;;3.36
53667;BMP280;39568;51.026;5.468;2022-10-12T01:17:30;101626.13;;;3.33
53667;BMP280;39568;51.026;5.468;2022-10-12T01:20:33;101619.50;;;3.29
53667;BMP280;39568;51.026;5.468;2022-10-12T01:26:26;101619.94;;;3.43
53667;BMP280;39568;51.026;5.468;2022-10-12T01:29:21;101617.00;;;3.58
53667;BMP280;39568;51.026;5.468;2022-10-12T01:31:57;101615.91;;;3.39
53667;BMP280;39568;51.026;5.468;2022-10-12T01:34:33;101627.72;;;3.31
53667;BMP280;39568;51.026;5.468;2022-10-12T01:37:14;101621.03;;;3.26
53667;BMP280;39568;51.026;5.468;2022-10-12T01:39:48;101620.63;;;3.28
53667;BMP280;39568;51.026;5.468;2022-10-12T01:42:17;101613.19;;;3.23
53667;BMP280;39568;51.026;5.468;2022-10-12T01:44:52;101617.88;;;3.15
53667;BMP280;39568;51.026;5.468;2022-10-12T01:47:27;101611.69;;;3.06
53667;BMP280;39568;51.026;5.468;2022-10-12T01:49:53;101612.16;;;3.01
53667;BMP280;39568;51.026;5.468;2022-10-12T01:52:26;101605.84;;;2.94
53667;BMP280;39568;51.026;5.468;2022-10-12T01:55:08;101605.94;;;2.91
53667;BMP280;39568;51.026;5.468;2022-10-12T01:57:45;101607.56;;;2.85
53667;BMP280;39568;51.026;5.468;2022-10-12T02:00:15;101598.19;;;2.84
53667;BMP280;39568;51.026;5.468;2022-10-12T02:02:52;101594.00;;;2.86
53667;BMP280;39568;51.026;5.468;2022-10-12T02:05:25;101604.53;;;2.86
53667;BMP280;39568;51.026;5.468;2022-10-12T02:07:58;101597.88;;;2.82
53667;BMP280;39568;51.026;5.468;2022-10-12T02:10:32;101590.81;;;2.75
53667;BMP280;39568;51.026;5.468;2022-10-12T02:13:04;101582.63;;;2.73
53667;BMP280;39568;51.026;5.468;2022-10-12T02:15:32;101589.47;;;2.67
53667;BMP280;39568;51.026;5.468;2022-10-12T02:18:01;101585.41;;;2.63
53667;BMP280;39568;51.026;5.468;2022-10-12T02:20:30;101580.31;;;2.56
53667;BMP280;39568;51.026;5.468;2022-10-12T02:22:59;101578.88;;;2.51
53667;BMP280;39568;51.026;5.468;2022-10-12T02:25:27;101582.25;;;2.52
53667;BMP280;39568;51.026;5.468;2022-10-12T02:27:58;101576.66;;;2.50
53667;BMP280;39568;51.026;5.468;2022-10-12T02:30:26;101574.84;;;2.47
53667;BMP280;39568;51.026;5.468;2022-10-12T02:32:55;101582.75;;;2.43
53667;BMP280;39568;51.026;5.468;2022-10-12T02:35:30;101570.09;;;2.38
53667;BMP280;39568;51.026;5.468;2022-10-12T02:38:00;101567.19;;;2.32
53667;BMP280;39568;51.026;5.468;2022-10-12T02:40:33;101572.09;;;2.30
53667;BMP280;39568;51.026;5.468;2022-10-12T02:43:06;101574.44;;;2.25
53667;BMP280;39568;51.026;5.468;2022-10-12T02:45:34;101567.66;;;2.27
53667;BMP280;39568;51.026;5.468;2022-10-12T02:48:02;101573.75;;;2.44
53667;BMP280;39568;51.026;5.468;2022-10-12T02:50:32;101574.50;;;2.64
53667;BMP280;39568;51.026;5.468;2022-10-12T02:52:59;101568.16;;;2.42
53667;BMP280;39568;51.026;5.468;2022-10-12T02:55:26;101559.66;;;2.34
53667;BMP280;39568;51.026;5.468;2022-10-12T02:57:52;101559.72;;;2.31
53667;BMP280;39568;51.026;5.468;2022-10-12T03:00:19;101555.28;;;2.28
53667;BMP280;39568;51.026;5.468;2022-10-12T03:02:46;101551.63;;;2.22
53667;BMP280;39568;51.026;5.468;2022-10-12T03:05:13;101558.06;;;2.17
53667;BMP280;39568;51.026;5.468;2022-10-12T03:07:41;101557.00;;;2.15
53667;BMP280;39568;51.026;5.468;2022-10-12T03:10:09;101557.75;;;2.15
53667;BMP280;39568;51.026;5.468;2022-10-12T03:12:37;101547.19;;;2.19
53667;BMP280;39568;51.026;5.468;2022-10-12T03:15:04;101550.13;;;2.21
53667;BMP280;39568;51.026;5.468;2022-10-12T03:17:31;101555.38;;;2.21
53667;BMP280;39568;51.026;5.468;2022-10-12T03:19:59;101541.44;;;2.24
53667;BMP280;39568;51.026;5.468;2022-10-12T03:22:25;101555.28;;;2.28
53667;BMP280;39568;51.026;5.468;2022-10-12T03:24:53;101545.03;;;2.33
53667;BMP280;39568;51.026;5.468;2022-10-12T03:27:21;101542.47;;;2.30
53667;BMP280;39568;51.026;5.468;2022-10-12T03:29:48;101538.81;;;2.24
53667;BMP280;39568;51.026;5.468;2022-10-12T03:32:17;101542.63;;;2.23
53667;BMP280;39568;51.026;5.468;2022-10-12T03:34:44;101538.88;;;2.20
53667;BMP280;39568;51.026;5.468;2022-10-12T03:37:10;101544.44;;;2.26
53667;BMP280;39568;51.026;5.468;2022-10-12T03:39:39;101536.63;;;2.22
53667;BMP280;39568;51.026;5.468;2022-10-12T03:42:08;101537.06;;;2.17
53667;BMP280;39568;51.026;5.468;2022-10-12T03:44:35;101536.03;;;2.11
53667;BMP280;39568;51.026;5.468;2022-10-12T03:47:03;101530.44;;;2.09
53667;BMP280;39568;51.026;5.468;2022-10-12T03:49:32;101528.72;;;1.99
53667;BMP280;39568;51.026;5.468;2022-10-12T03:52:04;101534.75;;;1.96
53667;BMP280;39568;51.026;5.468;2022-10-12T03:54:32;101527.88;;;2.06
53667;BMP280;39568;51.026;5.468;2022-10-12T03:56:59;101533.34;;;2.38
53667;BMP280;39568;51.026;5.468;2022-10-12T03:59:32;101536.22;;;2.43
53667;BMP280;39568;51.026;5.468;2022-10-12T04:02:07;101535.13;;;2.21
53667;BMP280;39568;51.026;5.468;2022-10-12T04:04:36;101535.31;;;2.11
53667;BMP280;39568;51.026;5.468;2022-10-12T04:07:03;101530.34;;;1.89
53667;BMP280;39568;51.026;5.468;2022-10-12T04:09:36;101524.78;;;1.87
53667;BMP280;39568;51.026;5.468;2022-10-12T04:12:03;101523.00;;;1.81
53667;BMP280;39568;51.026;5.468;2022-10-12T04:14:31;101523.88;;;1.74
53667;BMP280;39568;51.026;5.468;2022-10-12T04:16:58;101528.53;;;1.63
53667;BMP280;39568;51.026;5.468;2022-10-12T04:19:25;101530.84;;;1.58
53667;BMP280;39568;51.026;5.468;2022-10-12T04:21:56;101531.25;;;1.56
53667;BMP280;39568;51.026;5.468;2022-10-12T04:24:23;101533.16;;;1.52
53667;BMP280;39568;51.026;5.468;2022-10-12T04:26:49;101528.69;;;1.49
53667;BMP280;39568;51.026;5.468;2022-10-12T04:29:16;101532.47;;;1.48
53667;BMP280;39568;51.026;5.468;2022-10-12T04:31:44;101526.38;;;1.55
53667;BMP280;39568;51.026;5.468;2022-10-12T04:34:13;101534.91;;;1.62
53667;BMP280;39568;51.026;5.468;2022-10-12T04:36:41;101527.78;;;1.63
53667;BMP280;39568;51.026;5.468;2022-10-12T04:39:11;101521.53;;;1.53
53667;BMP280;39568;51.026;5.468;2022-10-12T04:41:38;101530.97;;;1.47
53667;BMP280;39568;51.026;5.468;2022-10-12T04:44:05;101525.78;;;1.43
53667;BMP280;39568;51.026;5.468;2022-10-12T04:46:32;101524.34;;;1.39
53667;BMP280;39568;51.026;5.468;2022-10-12T04:49:00;101526.28;;;1.35
53667;BMP280;39568;51.026;5.468;2022-10-12T04:51:27;101521.38;;;1.37
53667;BMP280;39568;51.026;5.468;2022-10-12T04:53:54;101524.09;;;1.30
53667;BMP280;39568;51.026;5.468;2022-10-12T04:56:21;101530.50;;;1.29
53667;BMP280;39568;51.026;5.468;2022-10-12T04:58:50;101534.25;;;1.28
53667;BMP280;39568;51.026;5.468;2022-10-12T05:01:17;101538.00;;;1.27
53667;BMP280;39568;51.026;5.468;2022-10-12T05:03:44;101535.03;;;1.25
53667;BMP280;39568;51.026;5.468;2022-10-12T05:06:12;101536.16;;;1.24
53667;BMP280;39568;51.026;5.468;2022-10-12T05:08:38;101531.25;;;1.26
53667;BMP280;39568;51.026;5.468;2022-10-12T05:11:05;101533.56;;;1.24
53667;BMP280;39568;51.026;5.468;2022-10-12T05:13:32;101531.34;;;1.19
53667;BMP280;39568;51.026;5.468;2022-10-12T05:16:00;101529.88;;;1.18
53667;BMP280;39568;51.026;5.468;2022-10-12T05:18:27;101523.06;;;1.24
53667;BMP280;39568;51.026;5.468;2022-10-12T05:20:53;101519.66;;;1.27
53667;BMP280;39568;51.026;5.468;2022-10-12T05:23:21;101524.56;;;1.25
53667;BMP280;39568;51.026;5.468;2022-10-12T05:25:48;101528.34;;;1.20
53667;BMP280;39568;51.026;5.468;2022-10-12T05:28:15;101521.75;;;1.09
53667;BMP280;39568;51.026;5.468;2022-10-12T05:30:41;101522.50;;;1.09
53667;BMP280;39568;51.026;5.468;2022-10-12T05:33:08;101518.06;;;1.03
53667;BMP280;39568;51.026;5.468;2022-10-12T05:35:35;101523.38;;;0.95
53667;BMP280;39568;51.026;5.468;2022-10-12T05:38:02;101522.69;;;0.91
53667;BMP280;39568;51.026;5.468;2022-10-12T05:40:33;101512.63;;;0.86
53667;BMP280;39568;51.026;5.468;2022-10-12T05:43:00;101518.22;;;0.88
53667;BMP280;39568;51.026;5.468;2022-10-12T05:45:27;101510.00;;;0.86
53667;BMP280;39568;51.026;5.468;2022-10-12T05:47:54;101521.19;;;0.90
53667;BMP280;39568;51.026;5.468;2022-10-12T05:50:21;101522.00;;;1.18
53667;BMP280;39568;51.026;5.468;2022-10-12T05:52:49;101518.75;;;1.37
53667;BMP280;39568;51.026;5.468;2022-10-12T05:55:15;101510.28;;;1.26
53667;BMP280;39568;51.026;5.468;2022-10-12T05:57:44;101507.72;;;1.22
53667;BMP280;39568;51.026;5.468;2022-10-12T06:00:16;101514.19;;;1.14
53667;BMP280;39568;51.026;5.468;2022-10-12T06:02:43;101511.25;;;1.09
53667;BMP280;39568;51.026;5.468;2022-10-12T06:05:10;101512.41;;;1.08
53667;BMP280;39568;51.026;5.468;2022-10-12T06:07:36;101514.22;;;1.11
53667;BMP280;39568;51.026;5.468;2022-10-12T06:10:04;101508.59;;;1.12
53667;BMP280;39568;51.026;5.468;2022-10-12T06:12:31;101507.34;;;1.24
53667;BMP280;39568;51.026;5.468;2022-10-12T06:15:00;101510.22;;;1.33
53667;BMP280;39568;51.026;5.468;2022-10-12T06:17:27;101507.44;;;1.43
53667;BMP280;39568;51.026;5.468;2022-10-12T06:19:54;101493.78;;;1.56
53667;BMP280;39568;51.026;5.468;2022-10-12T06:22:20;101502.06;;;1.77
53667;BMP280;39568;51.026;5.468;2022-10-12T06:24:48;101498.06;;;1.92
53667;BMP280;39568;51.026;5.468;2022-10-12T06:27:15;101504.13;;;2.13
53667;BMP280;39568;51.026;5.468;2022-10-12T06:29:44;101499.72;;;2.29
53667;BMP280;39568;51.026;5.468;2022-10-12T06:32:12;101505.81;;;2.46
53667;BMP280;39568;51.026;5.468;2022-10-12T06:34:39;101510.41;;;2.62
53667;BMP280;39568;51.026;5.468;2022-10-12T06:37:06;101509.22;;;2.82
53667;BMP280;39568;51.026;5.468;2022-10-12T06:39:33;101509.63;;;3.01
53667;BMP280;39568;51.026;5.468;2022-10-12T06:41:59;101511.19;;;3.14
53667;BMP280;39568;51.026;5.468;2022-10-12T06:44:26;101519.94;;;3.27
53667;BMP280;39568;51.026;5.468;2022-10-12T06:46:52;101520.06;;;3.40
53667;BMP280;39568;51.026;5.468;2022-10-12T06:49:21;101512.88;;;3.57
53667;BMP280;39568;51.026;5.468;2022-10-12T06:51:47;101513.34;;;3.71
53667;BMP280;39568;51.026;5.468;2022-10-12T06:54:14;101511.44;;;3.88
53667;BMP280;39568;51.026;5.468;2022-10-12T06:56:41;101513.59;;;4.06
53667;BMP280;39568;51.026;5.468;2022-10-12T06:59:10;101516.84;;;4.26
53667;BMP280;39568;51.026;5.468;2022-10-12T07:01:39;101511.53;;;4.42
53667;BMP280;39568;51.026;5.468;2022-10-12T07:04:09;101512.91;;;4.59
53667;BMP280;39568;51.026;5.468;2022-10-12T07:06:39;101526.47;;;4.74
53667;BMP280;39568;51.026;5.468;2022-10-12T07:09:07;101530.47;;;4.78
53667;BMP280;39568;51.026;5.468;2022-10-12T07:11:35;101524.69;;;4.83
53667;BMP280;39568;51.026;5.468;2022-10-12T07:14:01;101518.91;;;4.88
53667;BMP280;39568;51.026;5.468;2022-10-12T07:16:28;101528.16;;;4.93
53667;BMP280;39568;51.026;5.468;2022-10-12T07:19:05;101523.34;;;5.04
53667;BMP280;39568;51.026;5.468;2022-10-12T07:21:32;101518.81;;;5.17
53667;BMP280;39568;51.026;5.468;2022-10-12T07:24:00;101530.50;;;5.29
53667;BMP280;39568;51.026;5.468;2022-10-12T07:26:26;101528.16;;;5.43
53667;BMP280;39568;51.026;5.468;2022-10-12T07:28:54;101526.34;;;5.53
53667;BMP280;39568;51.026;5.468;2022-10-12T07:31:21;101536.47;;;5.67
53667;BMP280;39568;51.026;5.468;2022-10-12T07:33:50;101532.34;;;5.66
53667;BMP280;39568;51.026;5.468;2022-10-12T07:36:16;101537.34;;;5.86
53667;BMP280;39568;51.026;5.468;2022-10-12T07:38:44;101530.81;;;6.12
53667;BMP280;39568;51.026;5.468;2022-10-12T07:41:14;101537.16;;;6.36
53667;BMP280;39568;51.026;5.468;2022-10-12T07:43:41;101532.19;;;6.69
53667;BMP280;39568;51.026;5.468;2022-10-12T07:46:10;101531.13;;;6.97
53667;BMP280;39568;51.026;5.468;2022-10-12T07:48:40;101534.75;;;7.12
53667;BMP280;39568;51.026;5.468;2022-10-12T07:51:08;101536.53;;;7.34
53667;BMP280;39568;51.026;5.468;2022-10-12T07:53:37;101538.63;;;7.57
53667;BMP280;39568;51.026;5.468;2022-10-12T07:56:06;101534.22;;;7.72
53667;BMP280;39568;51.026;5.468;2022-10-12T07:58:40;101541.13;;;7.97
53667;BMP280;39568;51.026;5.468;2022-10-12T08:01:08;101545.34;;;8.30
53667;BMP280;39568;51.026;5.468;2022-10-12T08:03:35;101547.66;;;8.65
53667;BMP280;39568;51.026;5.468;2022-10-12T08:06:13;101555.72;;;9.03
53667;BMP280;39568;51.026;5.468;2022-10-12T08:08:42;101551.59;;;9.49
53667;BMP280;39568;51.026;5.468;2022-10-12T08:11:10;101552.69;;;10.10
53667;BMP280;39568;51.026;5.468;2022-10-12T08:13:37;101556.16;;;10.46
53667;BMP280;39568;51.026;5.468;2022-10-12T08:16:09;101557.38;;;10.79
53667;BMP280;39568;51.026;5.468;2022-10-12T08:18:36;101557.94;;;11.24
53667;BMP280;39568;51.026;5.468;2022-10-12T08:21:03;101553.63;;;11.47
53667;BMP280;39568;51.026;5.468;2022-10-12T08:23:30;101553.19;;;12.05
53667;BMP280;39568;51.026;5.468;2022-10-12T08:25:57;101548.31;;;12.88
53667;BMP280;39568;51.026;5.468;2022-10-12T08:28:24;101542.94;;;13.64
53667;BMP280;39568;51.026;5.468;2022-10-12T08:30:50;101550.00;;;14.11
53667;BMP280;39568;51.026;5.468;2022-10-12T08:33:19;101557.53;;;14.24
53667;BMP280;39568;51.026;5.468;2022-10-12T08:35:46;101553.47;;;14.74
53667;BMP280;39568;51.026;5.468;2022-10-12T08:38:15;101535.94;;;14.73
53667;BMP280;39568;51.026;5.468;2022-10-12T08:40:46;101543.22;;;14.73
53667;BMP280;39568;51.026;5.468;2022-10-12T08:43:16;101544.56;;;15.02
53667;BMP280;39568;51.026;5.468;2022-10-12T08:45:51;101539.25;;;15.67
53667;BMP280;39568;51.026;5.468;2022-10-12T08:48:27;101540.81;;;16.10
53667;BMP280;39568;51.026;5.468;2022-10-12T08:50:59;101544.59;;;16.20
53667;BMP280;39568;51.026;5.468;2022-10-12T08:53:31;101541.28;;;15.20
53667;BMP280;39568;51.026;5.468;2022-10-12T08:55:58;101542.47;;;15.30
53667;BMP280;39568;51.026;5.468;2022-10-12T08:58:30;101539.31;;;14.79
53667;BMP280;39568;51.026;5.468;2022-10-12T09:01:08;101538.28;;;14.36
53667;BMP280;39568;51.026;5.468;2022-10-12T09:03:47;101558.53;;;13.93
53667;BMP280;39568;51.026;5.468;2022-10-12T09:06:19;101565.78;;;14.31
53667;BMP280;39568;51.026;5.468;2022-10-12T09:09:00;101557.72;;;14.48
53667;BMP280;39568;51.026;5.468;2022-10-12T09:11:43;101560.19;;;15.38
53667;BMP280;39568;51.026;5.468;2022-10-12T09:14:20;101566.75;;;15.43
53667;BMP280;39568;51.026;5.468;2022-10-12T09:16:51;101573.75;;;15.57
53667;BMP280;39568;51.026;5.468;2022-10-12T09:19:30;101568.78;;;15.96
53667;BMP280;39568;51.026;5.468;2022-10-12T09:21:58;101568.47;;;17.04
53667;BMP280;39568;51.026;5.468;2022-10-12T09:24:27;101572.56;;;16.92
53667;BMP280;39568;51.026;5.468;2022-10-12T09:26:58;101555.81;;;17.18
53667;BMP280;39568;51.026;5.468;2022-10-12T09:29:27;101567.13;;;17.29
53667;BMP280;39568;51.026;5.468;2022-10-12T09:32:15;101556.78;;;16.64
53667;BMP280;39568;51.026;5.468;2022-10-12T09:34:47;101560.19;;;16.83
53667;BMP280;39568;51.026;5.468;2022-10-12T09:37:17;101563.06;;;16.48
53667;BMP280;39568;51.026;5.468;2022-10-12T09:39:46;101557.91;;;16.93
53667;BMP280;39568;51.026;5.468;2022-10-12T09:42:13;101550.03;;;16.95
53667;BMP280;39568;51.026;5.468;2022-10-12T09:44:43;101559.91;;;16.50
53667;BMP280;39568;51.026;5.468;2022-10-12T09:47:25;101569.22;;;16.00
53667;BMP280;39568;51.026;5.468;2022-10-12T09:49:55;101560.25;;;15.63
53667;BMP280;39568;51.026;5.468;2022-10-12T09:52:27;101549.50;;;15.68
53667;BMP280;39568;51.026;5.468;2022-10-12T09:54:58;101561.66;;;15.69
53667;BMP280;39568;51.026;5.468;2022-10-12T09:59:59;101552.03;;;16.09
53667;BMP280;39568;51.026;5.468;2022-10-12T10:02:28;101563.28;;;16.93
53667;BMP280;39568;51.026;5.468;2022-10-12T10:05:14;101554.22;;;17.09
53667;BMP280;39568;51.026;5.468;2022-10-12T10:07:47;101563.34;;;16.87
53667;BMP280;39568;51.026;5.468;2022-10-12T10:10:16;101552.53;;;16.32
53667;BMP280;39568;51.026;5.468;2022-10-12T10:12:47;101555.00;;;16.05
53667;BMP280;39568;51.026;5.468;2022-10-12T10:15:21;101542.44;;;15.65
53667;BMP280;39568;51.026;5.468;2022-10-12T10:17:49;101546.59;;;15.31
53667;BMP280;39568;51.026;5.468;2022-10-12T10:20:27;101539.38;;;15.50
53667;BMP280;39568;51.026;5.468;2022-10-12T10:22:55;101533.28;;;16.28
53667;BMP280;39568;51.026;5.468;2022-10-12T10:25:23;101529.13;;;16.88
53667;BMP280;39568;51.026;5.468;2022-10-12T10:28:08;101538.13;;;17.54
53667;BMP280;39568;51.026;5.468;2022-10-12T10:30:36;101539.72;;;17.89
53667;BMP280;39568;51.026;5.468;2022-10-12T10:33:12;101553.63;;;18.19
53667;BMP280;39568;51.026;5.468;2022-10-12T10:36:00;101550.00;;;17.45
53667;BMP280;39568;51.026;5.468;2022-10-12T10:38:30;101553.69;;;17.74
53667;BMP280;39568;51.026;5.468;2022-10-12T10:41:01;101551.59;;;18.45
53667;BMP280;39568;51.026;5.468;2022-10-12T10:43:30;101555.16;;;19.15
53667;BMP280;39568;51.026;5.468;2022-10-12T10:45:59;101551.03;;;19.35
53667;BMP280;39568;51.026;5.468;2022-10-12T10:48:28;101548.50;;;18.62
53667;BMP280;39568;51.026;5.468;2022-10-12T10:50:59;101553.78;;;19.01
53667;BMP280;39568;51.026;5.468;2022-10-12T10:53:30;101552.81;;;19.89
53667;BMP280;39568;51.026;5.468;2022-10-12T10:56:01;101553.22;;;20.51
53667;BMP280;39568;51.026;5.468;2022-10-12T10:58:33;101545.19;;;21.12
53667;BMP280;39568;51.026;5.468;2022-10-12T11:01:07;101539.72;;;20.74
53667;BMP280;39568;51.026;5.468;2022-10-12T11:03:46;101546.25;;;21.16
53667;BMP280;39568;51.026;5.468;2022-10-12T11:06:22;101523.34;;;20.79
53667;BMP280;39568;51.026;5.468;2022-10-12T11:08:57;101525.34;;;22.19
53667;BMP280;39568;51.026;5.468;2022-10-12T11:11:31;101521.91;;;23.34
53667;BMP280;39568;51.026;5.468;2022-10-12T11:14:10;101529.16;;;24.28
53667;BMP280;39568;51.026;5.468;2022-10-12T11:16:41;101520.13;;;24.71
53667;BMP280;39568;51.026;5.468;2022-10-12T11:19:23;101521.06;;;24.47
53667;BMP280;39568;51.026;5.468;2022-10-12T11:21:55;101511.44;;;25.21
53667;BMP280;39568;51.026;5.468;2022-10-12T11:24:31;101528.53;;;24.56
53667;BMP280;39568;51.026;5.468;2022-10-12T11:27:04;101514.38;;;22.09
53667;BMP280;39568;51.026;5.468;2022-10-12T11:29:35;101513.97;;;21.11
53667;BMP280;39568;51.026;5.468;2022-10-12T11:32:05;101491.16;;;21.44
53667;BMP280;39568;51.026;5.468;2022-10-12T11:34:42;101494.75;;;19.75
53667;BMP280;39568;51.026;5.468;2022-10-12T11:37:15;101487.56;;;19.42
53667;BMP280;39568;51.026;5.468;2022-10-12T11:39:44;101489.38;;;19.75
53667;BMP280;39568;51.026;5.468;2022-10-12T11:42:17;101489.22;;;21.14
53667;BMP280;39568;51.026;5.468;2022-10-12T11:44:47;101486.78;;;22.52
53667;BMP280;39568;51.026;5.468;2022-10-12T11:47:22;101480.72;;;23.81
53667;BMP280;39568;51.026;5.468;2022-10-12T11:49:54;101479.63;;;19.72
53667;BMP280;39568;51.026;5.468;2022-10-12T11:52:36;101473.03;;;19.52
53667;BMP280;39568;51.026;5.468;2022-10-12T11:55:22;101458.59;;;18.39
53667;BMP280;39568;51.026;5.468;2022-10-12T11:57:51;101458.00;;;19.08
53667;BMP280;39568;51.026;5.468;2022-10-12T12:00:22;101459.56;;;19.24
53667;BMP280;39568;51.026;5.468;2022-10-12T12:02:54;101465.75;;;19.11
53667;BMP280;39568;51.026;5.468;2022-10-12T12:05:22;101469.94;;;19.20
53667;BMP280;39568;51.026;5.468;2022-10-12T12:07:54;101466.03;;;19.28
53667;BMP280;39568;51.026;5.468;2022-10-12T12:10:49;101470.59;;;19.13
53667;BMP280;39568;51.026;5.468;2022-10-12T12:13:20;101461.13;;;20.79
53667;BMP280;39568;51.026;5.468;2022-10-12T12:19:12;101464.47;;;19.33
53667;BMP280;39568;51.026;5.468;2022-10-12T12:25:12;101452.13;;;18.34
53667;BMP280;39568;51.026;5.468;2022-10-12T12:27:42;101447.94;;;19.08
53667;BMP280;39568;51.026;5.468;2022-10-12T12:30:30;101435.28;;;19.03
53667;BMP280;39568;51.026;5.468;2022-10-12T12:32:59;101425.06;;;18.81
53667;BMP280;39568;51.026;5.468;2022-10-12T12:35:33;101432.31;;;19.14
53667;BMP280;39568;51.026;5.468;2022-10-12T12:38:04;101439.06;;;19.28
53667;BMP280;39568;51.026;5.468;2022-10-12T12:40:33;101434.81;;;19.41
53667;BMP280;39568;51.026;5.468;2022-10-12T12:43:33;101427.72;;;19.30
53667;BMP280;39568;51.026;5.468;2022-10-12T12:46:06;101427.16;;;19.60
53667;BMP280;39568;51.026;5.468;2022-10-12T12:48:58;101419.97;;;20.05
53667;BMP280;39568;51.026;5.468;2022-10-12T12:51:39;101422.44;;;19.45
53667;BMP280;39568;51.026;5.468;2022-10-12T12:54:20;101429.28;;;19.18
53667;BMP280;39568;51.026;5.468;2022-10-12T12:57:13;101413.34;;;19.63
53667;BMP280;39568;51.026;5.468;2022-10-12T13:00:03;101413.91;;;19.05
53667;BMP280;39568;51.026;5.468;2022-10-12T13:03:05;101419.38;;;18.30
53667;BMP280;39568;51.026;5.468;2022-10-12T13:08:53;101422.56;;;18.63
53667;BMP280;39568;51.026;5.468;2022-10-12T13:11:31;101419.28;;;19.69
53667;BMP280;39568;51.026;5.468;2022-10-12T13:14:16;101423.94;;;20.20
53667;BMP280;39568;51.026;5.468;2022-10-12T13:17:03;101420.34;;;20.77
53667;BMP280;39568;51.026;5.468;2022-10-12T13:19:32;101417.16;;;20.56
53667;BMP280;39568;51.026;5.468;2022-10-12T13:22:03;101408.97;;;21.02
53667;BMP280;39568;51.026;5.468;2022-10-12T13:24:38;101409.91;;;22.16
53667;BMP280;39568;51.026;5.468;2022-10-12T13:27:15;101406.28;;;22.13
53667;BMP280;39568;51.026;5.468;2022-10-12T13:29:47;101412.81;;;21.46
53667;BMP280;39568;51.026;5.468;2022-10-12T13:32:29;101407.16;;;21.04
53667;BMP280;39568;51.026;5.468;2022-10-12T13:35:03;101404.78;;;19.95
53667;BMP280;39568;51.026;5.468;2022-10-12T13:37:33;101405.41;;;19.65
53667;BMP280;39568;51.026;5.468;2022-10-12T13:40:01;101394.41;;;18.71
53667;BMP280;39568;51.026;5.468;2022-10-12T13:42:33;101397.16;;;18.99
53667;BMP280;39568;51.026;5.468;2022-10-12T13:45:06;101394.34;;;18.84
53667;BMP280;39568;51.026;5.468;2022-10-12T13:47:40;101398.41;;;18.78
53667;BMP280;39568;51.026;5.468;2022-10-12T13:50:15;101394.09;;;18.54
53667;BMP280;39568;51.026;5.468;2022-10-12T13:52:51;101397.25;;;18.45
53667;BMP280;39568;51.026;5.468;2022-10-12T13:55:23;101402.00;;;18.73
53667;BMP280;39568;51.026;5.468;2022-10-12T13:57:50;101391.00;;;17.83
53667;BMP280;39568;51.026;5.468;2022-10-12T14:00:20;101389.66;;;18.57
53667;BMP280;39568;51.026;5.468;2022-10-12T14:02:54;101397.13;;;18.50
53667;BMP280;39568;51.026;5.468;2022-10-12T14:05:22;101381.59;;;18.43
53667;BMP280;39568;51.026;5.468;2022-10-12T14:07:51;101369.38;;;18.22
53667;BMP280;39568;51.026;5.468;2022-10-12T14:10:23;101367.63;;;18.11
53667;BMP280;39568;51.026;5.468;2022-10-12T14:12:52;101380.75;;;18.28
53667;BMP280;39568;51.026;5.468;2022-10-12T14:15:24;101372.84;;;18.30
53667;BMP280;39568;51.026;5.468;2022-10-12T14:17:51;101376.66;;;18.96
53667;BMP280;39568;51.026;5.468;2022-10-12T14:20:27;101375.69;;;20.31
53667;BMP280;39568;51.026;5.468;2022-10-12T14:22:55;101369.53;;;20.83
53667;BMP280;39568;51.026;5.468;2022-10-12T14:25:25;101369.41;;;21.93
53667;BMP280;39568;51.026;5.468;2022-10-12T14:27:53;101373.09;;;22.30
53667;BMP280;39568;51.026;5.468;2022-10-12T14:30:24;101366.72;;;21.61
53667;BMP280;39568;51.026;5.468;2022-10-12T14:32:54;101362.06;;;21.07
53667;BMP280;39568;51.026;5.468;2022-10-12T14:35:24;101368.00;;;21.13
53667;BMP280;39568;51.026;5.468;2022-10-12T14:37:53;101363.75;;;21.66
53667;BMP280;39568;51.026;5.468;2022-10-12T14:40:29;101348.00;;;21.80